F/V Moorea — FMIT — position and weather

sailwx.info

Track history (hours):
 
Tides and Currents Weather Stations Pressure Air Temp Water Temp Dewpoint Dewpoint Depression Visibility Wind Speed Wind Dir Waves Ship Positions

F/V Moorea

Last reported at 2017-Oct-20 02:21 UTC. Time now 2017-Oct-20 04:55 UTC.
Position N 47°18' W 002°31'.

Length 18 m.

Type: Fishing. MMSI: 228239900.

Date/timePositionNaut miles runAvg speedWind from/ knotsBaromVisibWave heightAir tempDewpointWater temp
2017-Oct-20 02:21N 47°18' W 002°31'0 0.0
2017-Oct-20 01:50N 47°18' W 002°31'0 0.0
2017-Oct-20 01:29N 47°18' W 002°31'0 0.0
2017-Oct-20 00:51N 47°18' W 002°31'1 2.8
2017-Oct-20 00:26N 47°19' W 002°32'21 2.1
2017-Oct-19 14:11N 47°09' W 002°59'0 2.5
2017-Oct-19 13:59N 47°09' W 002°59'1 2.5
2017-Oct-19 13:29N 47°10' W 002°57'1 2.4
2017-Oct-19 13:00N 47°10' W 002°55'1 2.4
2017-Oct-19 12:30N 47°11' W 002°54'1 2.3
2017-Oct-19 12:00N 47°12' W 002°53'3 0.9
2017-Oct-19 08:37N 47°09' W 002°56'1 3.3
2017-Oct-19 08:22N 47°10' W 002°54'1 0.3
2017-Oct-19 05:33N 47°10' W 002°55'0 3.3
2017-Oct-19 05:30N 47°10' W 002°55'2 3.2
2017-Oct-19 04:56N 47°10' W 002°52'3 2.1
2017-Oct-19 03:22N 47°08' W 002°56'1 3.1
2017-Oct-19 02:55N 47°09' W 002°57'1 2.6
2017-Oct-19 02:30N 47°10' W 002°56'1 2.8
2017-Oct-19 02:00N 47°10' W 002°54'1 2.8
2017-Oct-19 01:30N 47°11' W 002°52'1 2.8
2017-Oct-19 01:00N 47°11' W 002°50'1 2.8
2017-Oct-19 00:30N 47°11' W 002°48'1 1.8
2017-Oct-18 23:57N 47°11' W 002°47'2 3.4
2017-Oct-18 23:24N 47°10' W 002°50'1 3.5
2017-Oct-18 23:00N 47°09' W 002°51'1 2.7
2017-Oct-18 22:30N 47°10' W 002°53'1 2.4
2017-Oct-18 22:00N 47°11' W 002°52'1 2.9
2017-Oct-18 21:30N 47°11' W 002°50'2 3.2
2017-Oct-18 21:00N 47°11' W 002°47'1 2.3
2017-Oct-18 20:30N 47°10' W 002°48'3 2.6
2017-Oct-18 19:30N 47°09' W 002°52'1 2.7
2017-Oct-18 19:00N 47°10' W 002°53'2 3.3
2017-Oct-18 18:30N 47°11' W 002°51'0 0.1
2017-Oct-18 15:45N 47°11' W 002°51'1 0.5
2017-Oct-18 13:16N 47°10' W 002°53'1 2.4
2017-Oct-18 13:00N 47°11' W 002°52'1 2.8
2017-Oct-18 12:29N 47°11' W 002°50'1 2.7
2017-Oct-18 12:00N 47°11' W 002°48'1 1.4
2017-Oct-18 11:18N 47°10' W 002°49'2 3.4
2017-Oct-18 10:49N 47°10' W 002°51'1 2.7
2017-Oct-18 10:29N 47°11' W 002°52'1 2.5
2017-Oct-18 10:00N 47°11' W 002°50'1 2.6
2017-Oct-18 09:30N 47°10' W 002°49'1 2.9
2017-Oct-18 09:00N 47°09' W 002°51'1 2.2
2017-Oct-18 08:30N 47°10' W 002°52'1 2.6
2017-Oct-18 07:57N 47°11' W 002°50'1 2.0
2017-Oct-18 07:20N 47°10' W 002°50'1 2.6
2017-Oct-18 06:54N 47°09' W 002°52'1 2.4
2017-Oct-18 06:27N 47°09' W 002°53'2 2.8
2017-Oct-18 05:55N 47°10' W 002°54'2 2.6
2017-Oct-18 05:19N 47°11' W 002°53'1 3.1
2017-Oct-18 05:00N 47°11' W 002°51'2 2.2
2017-Oct-18 04:16N 47°10' W 002°50'1 2.8
2017-Oct-18 04:00N 47°09' W 002°51'2 2.3
2017-Oct-18 03:17N 47°10' W 002°54'1 2.5
2017-Oct-18 02:50N 47°11' W 002°53'1 3.0
2017-Oct-18 02:27N 47°11' W 002°52'1 2.8
2017-Oct-18 02:00N 47°11' W 002°50'1 2.1
2017-Oct-18 01:30N 47°10' W 002°49'2 3.1
2017-Oct-18 01:00N 47°09' W 002°51'2 2.6
2017-Oct-18 00:24N 47°09' W 002°54'1 2.8
2017-Oct-18 00:00N 47°10' W 002°54'1 2.4
2017-Oct-17 23:30N 47°11' W 002°53'2 2.5
2017-Oct-17 22:50N 47°11' W 002°51'15 0.9
2017-Oct-17 07:13N 46°57' W 002°53'1 2.9
2017-Oct-17 06:43N 46°57' W 002°55'1 4.3
2017-Oct-17 06:30N 46°56' W 002°55'1 1.6
2017-Oct-17 05:50N 46°57' W 002°55'1 3.1
2017-Oct-17 05:27N 46°58' W 002°54'2 3.3
2017-Oct-17 05:00N 46°59' W 002°52'3 5.7
2017-Oct-17 04:30N 47°01' W 002°50'5 9.8
2017-Oct-17 04:00N 47°06' W 002°46'5 9.7
2017-Oct-17 03:30N 47°10' W 002°42'5 9.7
2017-Oct-17 03:00N 47°14' W 002°39'5 9.6
2017-Oct-17 02:30N 47°18' W 002°35'3 5.3
2017-Oct-17 01:59N 47°18' W 002°31'0 0.0
2017-Oct-17 01:30N 47°18' W 002°31'0 0.0
2017-Oct-17 00:55N 47°18' W 002°31'0 0.0
2017-Oct-17 00:30N 47°18' W 002°31'0 0.0
2017-Oct-17 00:00N 47°18' W 002°31'3 6.1
2017-Oct-16 23:28N 47°17' W 002°36'5 9.5
2017-Oct-16 22:58N 47°14' W 002°40'5 9.2
2017-Oct-16 22:28N 47°11' W 002°46'3 3.7
2017-Oct-16 21:42N 47°10' W 002°50'1 3.2
2017-Oct-16 21:27N 47°10' W 002°51'2 3.3
2017-Oct-16 20:46N 47°09' W 002°54'1 3.2
2017-Oct-16 20:18N 47°09' W 002°56'1 2.6
2017-Oct-16 19:56N 47°09' W 002°57'1 3.0
2017-Oct-16 19:30N 47°10' W 002°55'2 3.1
2017-Oct-16 19:00N 47°11' W 002°53'2 1.5
2017-Oct-16 17:42N 47°09' W 002°55'3 1.8
2017-Oct-16 16:06N 47°08' W 002°58'1 3.1
2017-Oct-16 15:52N 47°09' W 002°59'1 3.3
2017-Oct-16 15:29N 47°10' W 002°57'11 1.1
2017-Oct-16 04:44N 47°01' W 002°46'1 3.2
2017-Oct-16 04:29N 47°01' W 002°45'2 3.1
2017-Oct-16 03:44N 47°01' W 002°42'1 3.4
2017-Oct-16 03:29N 46°60' W 002°41'2 3.4
2017-Oct-16 02:59N 46°59' W 002°40'1 2.6
2017-Oct-16 02:31N 46°58' W 002°38'1 2.3
2017-Oct-16 01:56N 46°59' W 002°39'3 2.5
2017-Oct-16 00:52N 47°02' W 002°42'2 3.2
2017-Oct-16 00:23N 47°01' W 002°44'2 2.8
2017-Oct-15 23:44N 47°00' W 002°46'1 2.6
2017-Oct-15 23:29N 47°00' W 002°47'1 2.1
2017-Oct-15 22:59N 47°01' W 002°47'1 2.5
2017-Oct-15 22:24N 47°02' W 002°45'1 2.6
2017-Oct-15 21:59N 47°02' W 002°44'1 2.5
2017-Oct-15 21:29N 47°03' W 002°42'1 1.6
2017-Oct-15 20:45N 47°02' W 002°41'1 3.5
2017-Oct-15 20:20N 47°01' W 002°43'1 3.5
2017-Oct-15 20:00N 47°00' W 002°44'2 3.1
2017-Oct-15 19:29N 47°00' W 002°47'1 2.6
2017-Oct-15 19:00N 47°01' W 002°48'1 2.7
2017-Oct-15 18:30N 47°02' W 002°46'2 3.2
2017-Oct-15 17:57N 47°01' W 002°44'2 3.9
2017-Oct-15 17:30N 47°01' W 002°41'2 3.2
2017-Oct-15 16:56N 46°59' W 002°40'1 3.3
2017-Oct-15 16:30N 46°58' W 002°39'2 3.3
2017-Oct-15 16:00N 46°57' W 002°38'1 2.5
2017-Oct-15 15:30N 46°56' W 002°40'1 2.8
2017-Oct-15 14:59N 46°54' W 002°40'3 2.9
2017-Oct-15 14:00N 46°52' W 002°41'1 2.6
2017-Oct-15 13:30N 46°51' W 002°39'3 3.0
2017-Oct-15 12:40N 46°49' W 002°37'1 3.3
2017-Oct-15 12:22N 46°49' W 002°36'1 3.4
2017-Oct-15 11:59N 46°47' W 002°35'2 2.3
2017-Oct-15 11:20N 46°48' W 002°32'1 2.9
2017-Oct-15 10:53N 46°49' W 002°33'1 2.9
2017-Oct-15 10:30N 46°50' W 002°33'1 2.1
2017-Oct-15 10:01N 46°50' W 002°35'2 3.1
2017-Oct-15 09:30N 46°48' W 002°33'2 3.1
2017-Oct-15 09:00N 46°48' W 002°31'2 3.2
2017-Oct-15 08:30N 46°47' W 002°29'1 2.5
2017-Oct-15 08:00N 46°46' W 002°31'1 2.8
2017-Oct-15 07:29N 46°47' W 002°32'2 3.1
2017-Oct-15 06:59N 46°48' W 002°33'2 3.1
2017-Oct-15 06:30N 46°49' W 002°35'2 3.3
2017-Oct-15 06:00N 46°51' W 002°36'2 3.1
2017-Oct-15 05:26N 46°52' W 002°37'1 3.1
2017-Oct-15 04:59N 46°53' W 002°39'2 3.1
2017-Oct-15 04:30N 46°54' W 002°40'2 3.0
2017-Oct-15 03:55N 46°56' W 002°41'1 3.1
2017-Oct-15 03:27N 46°57' W 002°42'1 2.9
2017-Oct-15 03:00N 46°59' W 002°42'3 2.5
2017-Oct-15 01:57N 47°01' W 002°41'1 2.2
2017-Oct-15 01:29N 47°00' W 002°41'3 3.0
2017-Oct-15 00:32N 46°59' W 002°45'1 2.8
2017-Oct-15 00:04N 47°00' W 002°47'0 3.2
2017-Oct-14 23:59N 47°00' W 002°47'1 2.9
2017-Oct-14 23:30N 47°01' W 002°45'2 3.0
2017-Oct-14 23:00N 47°01' W 002°43'1 2.6
2017-Oct-14 22:30N 47°01' W 002°41'3 3.2
2017-Oct-14 21:30N 46°58' W 002°39'3 2.5
2017-Oct-14 20:17N 46°55' W 002°40'1 3.2
2017-Oct-14 20:00N 46°54' W 002°40'2 3.2
2017-Oct-14 19:30N 46°53' W 002°39'2 3.1
2017-Oct-14 19:00N 46°52' W 002°37'2 3.2
2017-Oct-14 18:15N 46°50' W 002°35'2 3.8
2017-Oct-14 17:49N 46°48' W 002°33'1 3.3
2017-Oct-14 17:28N 46°48' W 002°32'1 3.1
2017-Oct-14 17:00N 46°47' W 002°30'1 2.1
2017-Oct-14 16:25N 46°46' W 002°30'1 2.7
2017-Oct-14 15:56N 46°46' W 002°31'3 3.0
2017-Oct-14 14:51N 46°49' W 002°34'1 3.1
2017-Oct-14 14:30N 46°50' W 002°35'2 3.1
2017-Oct-14 14:00N 46°50' W 002°33'2 3.0
2017-Oct-14 13:12N 46°48' W 002°31'1 3.0
2017-Oct-14 12:57N 46°48' W 002°30'1 3.1
2017-Oct-14 12:30N 46°47' W 002°29'2 2.6
2017-Oct-14 11:53N 46°46' W 002°31'2 3.0
2017-Oct-14 11:06N 46°48' W 002°33'0 3.1
2017-Oct-14 11:00N 46°48' W 002°33'0 0.3
2017-Oct-14 10:29N 46°48' W 002°33'1 3.0
2017-Oct-14 10:00N 46°47' W 002°32'2 2.3
2017-Oct-14 09:00N 46°48' W 002°35'2 3.0
2017-Oct-14 08:24N 46°49' W 002°37'2 3.0
2017-Oct-14 07:49N 46°51' W 002°39'2 3.2
2017-Oct-14 07:13N 46°52' W 002°41'1 2.7
2017-Oct-14 07:00N 46°52' W 002°41'1 2.7
2017-Oct-14 06:30N 46°54' W 002°41'1 2.5
2017-Oct-14 05:59N 46°55' W 002°40'1 2.4
2017-Oct-14 05:29N 46°56' W 002°39'1 2.7
2017-Oct-14 05:00N 46°57' W 002°38'2 3.1
2017-Oct-14 04:28N 46°58' W 002°40'1 3.0
2017-Oct-14 04:00N 46°60' W 002°40'2 3.1
2017-Oct-14 03:27N 47°01' W 002°41'3 5.9
2017-Oct-14 02:59N 47°04' W 002°41'5 9.9
2017-Oct-14 02:30N 47°09' W 002°39'5 9.9
2017-Oct-14 02:00N 47°13' W 002°37'5 9.6
2017-Oct-14 01:30N 47°18' W 002°35'3 4.8
2017-Oct-14 00:56N 47°18' W 002°31'0 0.0
2017-Oct-14 00:30N 47°18' W 002°31'0 0.0
2017-Oct-14 00:00N 47°18' W 002°31'0 0.0
2017-Oct-13 23:28N 47°18' W 002°31'1 2.0
2017-Oct-13 23:00N 47°19' W 002°31'5 8.3
2017-Oct-13 22:25N 47°16' W 002°37'5 9.4
2017-Oct-13 21:52N 47°13' W 002°43'3 9.5
2017-Oct-13 21:30N 47°11' W 002°48'2 3.8
2017-Oct-13 21:00N 47°10' W 002°50'2 3.3
2017-Oct-13 20:29N 47°10' W 002°53'2 3.3
2017-Oct-13 19:58N 47°09' W 002°55'1 3.3
2017-Oct-13 19:30N 47°09' W 002°57'1 1.6
2017-Oct-13 19:00N 47°09' W 002°57'1 2.9
2017-Oct-13 18:30N 47°10' W 002°56'2 3.4
2017-Oct-13 18:00N 47°11' W 002°53'1 2.6
2017-Oct-13 17:31N 47°11' W 002°52'1 2.8
2017-Oct-13 17:00N 47°10' W 002°52'2 3.3
2017-Oct-13 16:27N 47°09' W 002°55'1 3.3
2017-Oct-13 16:00N 47°08' W 002°56'1 3.0
2017-Oct-13 15:30N 47°10' W 002°57'2 3.3
2017-Oct-13 15:00N 47°11' W 002°55'2 3.5
2017-Oct-13 14:30N 47°11' W 002°52'2 2.9
2017-Oct-13 13:58N 47°09' W 002°52'3 2.5
2017-Oct-13 12:40N 47°09' W 002°57'1 3.3
2017-Oct-13 12:27N 47°10' W 002°57'1 3.2
2017-Oct-13 12:00N 47°10' W 002°55'2 3.3
2017-Oct-13 11:28N 47°11' W 002°53'2 2.9
2017-Oct-13 10:55N 47°10' W 002°51'2 3.0
2017-Oct-13 10:24N 47°09' W 002°53'2 3.1
2017-Oct-13 09:46N 47°08' W 002°55'1 3.1
2017-Oct-13 09:21N 47°09' W 002°57'1 2.7
2017-Oct-13 08:59N 47°10' W 002°57'2 3.1
2017-Oct-13 08:30N 47°10' W 002°55'3 2.1
2017-Oct-13 06:54N 47°08' W 002°58'1 2.5
2017-Oct-13 06:23N 47°08' W 003°00'1 2.7
2017-Oct-13 06:00N 47°09' W 002°59'2 3.0
2017-Oct-13 05:29N 47°09' W 002°57'1 3.0
2017-Oct-13 05:00N 47°10' W 002°56'2 2.9
2017-Oct-13 04:29N 47°11' W 002°53'1 1.8
2017-Oct-13 03:38N 47°09' W 002°54'1 3.2
2017-Oct-13 03:27N 47°09' W 002°54'2 3.2
2017-Oct-13 02:51N 47°08' W 002°57'1 2.8
2017-Oct-13 02:30N 47°08' W 002°58'1 2.9
2017-Oct-13 02:00N 47°09' W 002°58'2 3.4
2017-Oct-13 01:30N 47°10' W 002°56'2 3.5
2017-Oct-13 01:00N 47°10' W 002°54'2 3.5
2017-Oct-13 00:30N 47°11' W 002°51'4 7.3
2017-Oct-13 00:00N 47°12' W 002°46'5 9.3
2017-Oct-12 23:30N 47°14' W 002°40'5 9.3
2017-Oct-12 23:00N 47°18' W 002°35'3 6.1
2017-Oct-12 22:30N 47°18' W 002°31'0 0.0
2017-Oct-12 21:56N 47°18' W 002°31'0 0.0
2017-Oct-12 21:30N 47°18' W 002°31'0 0.7
2017-Oct-12 21:00N 47°18' W 002°31'5 8.5
2017-Oct-12 20:28N 47°19' W 002°38'5 9.6
2017-Oct-12 19:57N 47°18' W 002°45'6 9.4
2017-Oct-12 19:21N 47°16' W 002°53'2 3.2
2017-Oct-12 18:46N 47°15' W 002°55'1 3.0
2017-Oct-12 18:30N 47°16' W 002°55'1 2.4
2017-Oct-12 17:59N 47°16' W 002°53'2 3.1
2017-Oct-12 17:16N 47°14' W 002°55'4 2.4
2017-Oct-12 15:31N 47°10' W 002°58'0 4.4
2017-Oct-12 15:25N 47°10' W 002°58'1 2.2
2017-Oct-12 15:00N 47°10' W 002°57'2 0.6
2017-Oct-12 11:35N 47°08' W 002°59'0 2.3
2017-Oct-12 11:30N 47°08' W 002°59'2 3.0
2017-Oct-12 10:59N 47°10' W 002°57'2 3.2
2017-Oct-12 10:20N 47°10' W 002°54'1 3.1
2017-Oct-12 09:52N 47°11' W 002°52'5 1.7
2017-Oct-12 06:58N 47°08' W 002°59'1 2.6
2017-Oct-12 06:30N 47°09' W 002°58'1 3.0
2017-Oct-12 06:00N 47°10' W 002°56'1 2.9
2017-Oct-12 05:29N 47°10' W 002°54'1 2.8
2017-Oct-12 05:00N 47°11' W 002°52'1 2.9
2017-Oct-12 04:29N 47°11' W 002°50'2 2.1
2017-Oct-12 03:44N 47°11' W 002°52'1 3.3
2017-Oct-12 03:17N 47°11' W 002°54'1 3.3
2017-Oct-12 02:56N 47°10' W 002°56'2 3.2
2017-Oct-12 02:27N 47°10' W 002°58'1 2.8
2017-Oct-12 02:00N 47°09' W 002°59'1 2.2
2017-Oct-12 01:30N 47°08' W 002°57'2 3.1
2017-Oct-12 01:00N 47°09' W 002°55'2 3.3
2017-Oct-12 00:30N 47°09' W 002°53'2 3.5
2017-Oct-12 00:00N 47°10' W 002°51'2 3.1
2017-Oct-11 23:29N 47°11' W 002°49'3 2.1
2017-Oct-11 22:17N 47°10' W 002°52'1 2.7
2017-Oct-11 21:53N 47°10' W 002°53'1 2.8
2017-Oct-11 21:26N 47°11' W 002°51'4 1.3
2017-Oct-11 18:23N 47°09' W 002°56'2 2.6
2017-Oct-11 17:46N 47°10' W 002°55'1 2.7
2017-Oct-11 17:27N 47°10' W 002°54'1 2.8
2017-Oct-11 16:59N 47°11' W 002°52'14 0.8
2017-Oct-10 23:00N 46°59' W 002°40'2 2.3
2017-Oct-10 22:16N 46°59' W 002°38'1 3.0
2017-Oct-10 21:56N 46°59' W 002°39'5 2.3
2017-Oct-10 19:47N 47°01' W 002°46'0 0.0
2017-Oct-10 15:09N 47°01' W 002°47'21 1.7
2017-Oct-10 03:03N 46°40' W 002°48'0 3.0
2017-Oct-10 03:00N 46°40' W 002°48'2 2.8
2017-Oct-10 02:26N 46°41' W 002°46'  
Track history (hours):
 
Tides and Currents Weather Stations Pressure Air Temp Water Temp Dewpoint Dewpoint Depression Visibility Wind Speed Wind Dir Waves Ship Positions

F/V Moorea

Last reported at 2017-Oct-20 02:21 UTC. Time now 2017-Oct-20 04:55 UTC.
Position N 47°18' W 002°31'.

Length 18 m.

Type: Fishing. MMSI: 228239900.

Date/timePositionNaut miles runAvg speedWind from/ knotsBaromVisibWave heightAir tempDewpointWater temp
2017-Oct-20 02:21N 47°18' W 002°31'0 0.0
2017-Oct-20 01:50N 47°18' W 002°31'0 0.0
2017-Oct-20 01:29N 47°18' W 002°31'0 0.0
2017-Oct-20 00:51N 47°18' W 002°31'1 2.8
2017-Oct-20 00:26N 47°19' W 002°32'21 2.1
2017-Oct-19 14:11N 47°09' W 002°59'0 2.5
2017-Oct-19 13:59N 47°09' W 002°59'1 2.5
2017-Oct-19 13:29N 47°10' W 002°57'1 2.4
2017-Oct-19 13:00N 47°10' W 002°55'1 2.4
2017-Oct-19 12:30N 47°11' W 002°54'1 2.3
2017-Oct-19 12:00N 47°12' W 002°53'3 0.9
2017-Oct-19 08:37N 47°09' W 002°56'1 3.3
2017-Oct-19 08:22N 47°10' W 002°54'1 0.3
2017-Oct-19 05:33N 47°10' W 002°55'0 3.3
2017-Oct-19 05:30N 47°10' W 002°55'2 3.2
2017-Oct-19 04:56N 47°10' W 002°52'3 2.1
2017-Oct-19 03:22N 47°08' W 002°56'1 3.1
2017-Oct-19 02:55N 47°09' W 002°57'1 2.6
2017-Oct-19 02:30N 47°10' W 002°56'1 2.8
2017-Oct-19 02:00N 47°10' W 002°54'1 2.8
2017-Oct-19 01:30N 47°11' W 002°52'1 2.8
2017-Oct-19 01:00N 47°11' W 002°50'1 2.8
2017-Oct-19 00:30N 47°11' W 002°48'1 1.8
2017-Oct-18 23:57N 47°11' W 002°47'2 3.4
2017-Oct-18 23:24N 47°10' W 002°50'1 3.5
2017-Oct-18 23:00N 47°09' W 002°51'1 2.7
2017-Oct-18 22:30N 47°10' W 002°53'1 2.4
2017-Oct-18 22:00N 47°11' W 002°52'1 2.9
2017-Oct-18 21:30N 47°11' W 002°50'2 3.2
2017-Oct-18 21:00N 47°11' W 002°47'1 2.3
2017-Oct-18 20:30N 47°10' W 002°48'3 2.6
2017-Oct-18 19:30N 47°09' W 002°52'1 2.7
2017-Oct-18 19:00N 47°10' W 002°53'2 3.3
2017-Oct-18 18:30N 47°11' W 002°51'0 0.1
2017-Oct-18 15:45N 47°11' W 002°51'1 0.5
2017-Oct-18 13:16N 47°10' W 002°53'1 2.4
2017-Oct-18 13:00N 47°11' W 002°52'1 2.8
2017-Oct-18 12:29N 47°11' W 002°50'1 2.7
2017-Oct-18 12:00N 47°11' W 002°48'1 1.4
2017-Oct-18 11:18N 47°10' W 002°49'2 3.4
2017-Oct-18 10:49N 47°10' W 002°51'1 2.7
2017-Oct-18 10:29N 47°11' W 002°52'1 2.5
2017-Oct-18 10:00N 47°11' W 002°50'1 2.6
2017-Oct-18 09:30N 47°10' W 002°49'1 2.9
2017-Oct-18 09:00N 47°09' W 002°51'1 2.2
2017-Oct-18 08:30N 47°10' W 002°52'1 2.6
2017-Oct-18 07:57N 47°11' W 002°50'1 2.0
2017-Oct-18 07:20N 47°10' W 002°50'1 2.6
2017-Oct-18 06:54N 47°09' W 002°52'1 2.4
2017-Oct-18 06:27N 47°09' W 002°53'2 2.8
2017-Oct-18 05:55N 47°10' W 002°54'2 2.6
2017-Oct-18 05:19N 47°11' W 002°53'1 3.1
2017-Oct-18 05:00N 47°11' W 002°51'2 2.2
2017-Oct-18 04:16N 47°10' W 002°50'1 2.8
2017-Oct-18 04:00N 47°09' W 002°51'2 2.3
2017-Oct-18 03:17N 47°10' W 002°54'1 2.5
2017-Oct-18 02:50N 47°11' W 002°53'1 3.0
2017-Oct-18 02:27N 47°11' W 002°52'1 2.8
2017-Oct-18 02:00N 47°11' W 002°50'1 2.1
2017-Oct-18 01:30N 47°10' W 002°49'2 3.1
2017-Oct-18 01:00N 47°09' W 002°51'2 2.6
2017-Oct-18 00:24N 47°09' W 002°54'1 2.8
2017-Oct-18 00:00N 47°10' W 002°54'1 2.4
2017-Oct-17 23:30N 47°11' W 002°53'2 2.5
2017-Oct-17 22:50N 47°11' W 002°51'15 0.9
2017-Oct-17 07:13N 46°57' W 002°53'1 2.9
2017-Oct-17 06:43N 46°57' W 002°55'1 4.3
2017-Oct-17 06:30N 46°56' W 002°55'1 1.6
2017-Oct-17 05:50N 46°57' W 002°55'1 3.1
2017-Oct-17 05:27N 46°58' W 002°54'2 3.3
2017-Oct-17 05:00N 46°59' W 002°52'3 5.7
2017-Oct-17 04:30N 47°01' W 002°50'5 9.8
2017-Oct-17 04:00N 47°06' W 002°46'5 9.7
2017-Oct-17 03:30N 47°10' W 002°42'5 9.7
2017-Oct-17 03:00N 47°14' W 002°39'5 9.6
2017-Oct-17 02:30N 47°18' W 002°35'3 5.3
2017-Oct-17 01:59N 47°18' W 002°31'0 0.0
2017-Oct-17 01:30N 47°18' W 002°31'0 0.0
2017-Oct-17 00:55N 47°18' W 002°31'0 0.0
2017-Oct-17 00:30N 47°18' W 002°31'0 0.0
2017-Oct-17 00:00N 47°18' W 002°31'3 6.1
2017-Oct-16 23:28N 47°17' W 002°36'5 9.5
2017-Oct-16 22:58N 47°14' W 002°40'5 9.2
2017-Oct-16 22:28N 47°11' W 002°46'3 3.7
2017-Oct-16 21:42N 47°10' W 002°50'1 3.2
2017-Oct-16 21:27N 47°10' W 002°51'2 3.3
2017-Oct-16 20:46N 47°09' W 002°54'1 3.2
2017-Oct-16 20:18N 47°09' W 002°56'1 2.6
2017-Oct-16 19:56N 47°09' W 002°57'1 3.0
2017-Oct-16 19:30N 47°10' W 002°55'2 3.1
2017-Oct-16 19:00N 47°11' W 002°53'2 1.5
2017-Oct-16 17:42N 47°09' W 002°55'3 1.8
2017-Oct-16 16:06N 47°08' W 002°58'1 3.1
2017-Oct-16 15:52N 47°09' W 002°59'1 3.3
2017-Oct-16 15:29N 47°10' W 002°57'11 1.1
2017-Oct-16 04:44N 47°01' W 002°46'1 3.2
2017-Oct-16 04:29N 47°01' W 002°45'2 3.1
2017-Oct-16 03:44N 47°01' W 002°42'1 3.4
2017-Oct-16 03:29N 46°60' W 002°41'2 3.4
2017-Oct-16 02:59N 46°59' W 002°40'1 2.6
2017-Oct-16 02:31N 46°58' W 002°38'1 2.3
2017-Oct-16 01:56N 46°59' W 002°39'3 2.5
2017-Oct-16 00:52N 47°02' W 002°42'2 3.2
2017-Oct-16 00:23N 47°01' W 002°44'2 2.8
2017-Oct-15 23:44N 47°00' W 002°46'1 2.6
2017-Oct-15 23:29N 47°00' W 002°47'1 2.1
2017-Oct-15 22:59N 47°01' W 002°47'1 2.5
2017-Oct-15 22:24N 47°02' W 002°45'1 2.6
2017-Oct-15 21:59N 47°02' W 002°44'1 2.5
2017-Oct-15 21:29N 47°03' W 002°42'1 1.6
2017-Oct-15 20:45N 47°02' W 002°41'1 3.5
2017-Oct-15 20:20N 47°01' W 002°43'1 3.5
2017-Oct-15 20:00N 47°00' W 002°44'2 3.1
2017-Oct-15 19:29N 47°00' W 002°47'1 2.6
2017-Oct-15 19:00N 47°01' W 002°48'1 2.7
2017-Oct-15 18:30N 47°02' W 002°46'2 3.2
2017-Oct-15 17:57N 47°01' W 002°44'2 3.9
2017-Oct-15 17:30N 47°01' W 002°41'2 3.2
2017-Oct-15 16:56N 46°59' W 002°40'1 3.3
2017-Oct-15 16:30N 46°58' W 002°39'2 3.3
2017-Oct-15 16:00N 46°57' W 002°38'1 2.5
2017-Oct-15 15:30N 46°56' W 002°40'1 2.8
2017-Oct-15 14:59N 46°54' W 002°40'3 2.9
2017-Oct-15 14:00N 46°52' W 002°41'1 2.6
2017-Oct-15 13:30N 46°51' W 002°39'3 3.0
2017-Oct-15 12:40N 46°49' W 002°37'1 3.3
2017-Oct-15 12:22N 46°49' W 002°36'1 3.4
2017-Oct-15 11:59N 46°47' W 002°35'2 2.3
2017-Oct-15 11:20N 46°48' W 002°32'1 2.9
2017-Oct-15 10:53N 46°49' W 002°33'1 2.9
2017-Oct-15 10:30N 46°50' W 002°33'1 2.1
2017-Oct-15 10:01N 46°50' W 002°35'2 3.1
2017-Oct-15 09:30N 46°48' W 002°33'2 3.1
2017-Oct-15 09:00N 46°48' W 002°31'2 3.2
2017-Oct-15 08:30N 46°47' W 002°29'1 2.5
2017-Oct-15 08:00N 46°46' W 002°31'1 2.8
2017-Oct-15 07:29N 46°47' W 002°32'2 3.1
2017-Oct-15 06:59N 46°48' W 002°33'2 3.1
2017-Oct-15 06:30N 46°49' W 002°35'2 3.3
2017-Oct-15 06:00N 46°51' W 002°36'2 3.1
2017-Oct-15 05:26N 46°52' W 002°37'1 3.1
2017-Oct-15 04:59N 46°53' W 002°39'2 3.1
2017-Oct-15 04:30N 46°54' W 002°40'2 3.0
2017-Oct-15 03:55N 46°56' W 002°41'1 3.1
2017-Oct-15 03:27N 46°57' W 002°42'1 2.9
2017-Oct-15 03:00N 46°59' W 002°42'3 2.5
2017-Oct-15 01:57N 47°01' W 002°41'1 2.2
2017-Oct-15 01:29N 47°00' W 002°41'3 3.0
2017-Oct-15 00:32N 46°59' W 002°45'1 2.8
2017-Oct-15 00:04N 47°00' W 002°47'0 3.2
2017-Oct-14 23:59N 47°00' W 002°47'1 2.9
2017-Oct-14 23:30N 47°01' W 002°45'2 3.0
2017-Oct-14 23:00N 47°01' W 002°43'1 2.6
2017-Oct-14 22:30N 47°01' W 002°41'3 3.2
2017-Oct-14 21:30N 46°58' W 002°39'3 2.5
2017-Oct-14 20:17N 46°55' W 002°40'1 3.2
2017-Oct-14 20:00N 46°54' W 002°40'2 3.2
2017-Oct-14 19:30N 46°53' W 002°39'2 3.1
2017-Oct-14 19:00N 46°52' W 002°37'2 3.2
2017-Oct-14 18:15N 46°50' W 002°35'2 3.8
2017-Oct-14 17:49N 46°48' W 002°33'1 3.3
2017-Oct-14 17:28N 46°48' W 002°32'1 3.1
2017-Oct-14 17:00N 46°47' W 002°30'1 2.1
2017-Oct-14 16:25N 46°46' W 002°30'1 2.7
2017-Oct-14 15:56N 46°46' W 002°31'3 3.0
2017-Oct-14 14:51N 46°49' W 002°34'1 3.1
2017-Oct-14 14:30N 46°50' W 002°35'2 3.1
2017-Oct-14 14:00N 46°50' W 002°33'2 3.0
2017-Oct-14 13:12N 46°48' W 002°31'1 3.0
2017-Oct-14 12:57N 46°48' W 002°30'1 3.1
2017-Oct-14 12:30N 46°47' W 002°29'2 2.6
2017-Oct-14 11:53N 46°46' W 002°31'2 3.0
2017-Oct-14 11:06N 46°48' W 002°33'0 3.1
2017-Oct-14 11:00N 46°48' W 002°33'0 0.3
2017-Oct-14 10:29N 46°48' W 002°33'1 3.0
2017-Oct-14 10:00N 46°47' W 002°32'2 2.3
2017-Oct-14 09:00N 46°48' W 002°35'2 3.0
2017-Oct-14 08:24N 46°49' W 002°37'2 3.0
2017-Oct-14 07:49N 46°51' W 002°39'2 3.2
2017-Oct-14 07:13N 46°52' W 002°41'1 2.7
2017-Oct-14 07:00N 46°52' W 002°41'1 2.7
2017-Oct-14 06:30N 46°54' W 002°41'1 2.5
2017-Oct-14 05:59N 46°55' W 002°40'1 2.4
2017-Oct-14 05:29N 46°56' W 002°39'1 2.7
2017-Oct-14 05:00N 46°57' W 002°38'2 3.1
2017-Oct-14 04:28N 46°58' W 002°40'1 3.0
2017-Oct-14 04:00N 46°60' W 002°40'2 3.1
2017-Oct-14 03:27N 47°01' W 002°41'3 5.9
2017-Oct-14 02:59N 47°04' W 002°41'5 9.9
2017-Oct-14 02:30N 47°09' W 002°39'5 9.9
2017-Oct-14 02:00N 47°13' W 002°37'5 9.6
2017-Oct-14 01:30N 47°18' W 002°35'3 4.8
2017-Oct-14 00:56N 47°18' W 002°31'0 0.0
2017-Oct-14 00:30N 47°18' W 002°31'0 0.0
2017-Oct-14 00:00N 47°18' W 002°31'0 0.0
2017-Oct-13 23:28N 47°18' W 002°31'1 2.0
2017-Oct-13 23:00N 47°19' W 002°31'5 8.3
2017-Oct-13 22:25N 47°16' W 002°37'5 9.4
2017-Oct-13 21:52N 47°13' W 002°43'3 9.5
2017-Oct-13 21:30N 47°11' W 002°48'2 3.8
2017-Oct-13 21:00N 47°10' W 002°50'2 3.3
2017-Oct-13 20:29N 47°10' W 002°53'2 3.3
2017-Oct-13 19:58N 47°09' W 002°55'1 3.3
2017-Oct-13 19:30N 47°09' W 002°57'1 1.6
2017-Oct-13 19:00N 47°09' W 002°57'1 2.9
2017-Oct-13 18:30N 47°10' W 002°56'2 3.4
2017-Oct-13 18:00N 47°11' W 002°53'1 2.6
2017-Oct-13 17:31N 47°11' W 002°52'1 2.8
2017-Oct-13 17:00N 47°10' W 002°52'2 3.3
2017-Oct-13 16:27N 47°09' W 002°55'1 3.3
2017-Oct-13 16:00N 47°08' W 002°56'1 3.0
2017-Oct-13 15:30N 47°10' W 002°57'2 3.3
2017-Oct-13 15:00N 47°11' W 002°55'2 3.5
2017-Oct-13 14:30N 47°11' W 002°52'2 2.9
2017-Oct-13 13:58N 47°09' W 002°52'3 2.5
2017-Oct-13 12:40N 47°09' W 002°57'1 3.3
2017-Oct-13 12:27N 47°10' W 002°57'1 3.2
2017-Oct-13 12:00N 47°10' W 002°55'2 3.3
2017-Oct-13 11:28N 47°11' W 002°53'2 2.9
2017-Oct-13 10:55N 47°10' W 002°51'2 3.0
2017-Oct-13 10:24N 47°09' W 002°53'2 3.1
2017-Oct-13 09:46N 47°08' W 002°55'1 3.1
2017-Oct-13 09:21N 47°09' W 002°57'1 2.7
2017-Oct-13 08:59N 47°10' W 002°57'2 3.1
2017-Oct-13 08:30N 47°10' W 002°55'3 2.1
2017-Oct-13 06:54N 47°08' W 002°58'1 2.5
2017-Oct-13 06:23N 47°08' W 003°00'1 2.7
2017-Oct-13 06:00N 47°09' W 002°59'2 3.0
2017-Oct-13 05:29N 47°09' W 002°57'1 3.0
2017-Oct-13 05:00N 47°10' W 002°56'2 2.9
2017-Oct-13 04:29N 47°11' W 002°53'1 1.8
2017-Oct-13 03:38N 47°09' W 002°54'1 3.2
2017-Oct-13 03:27N 47°09' W 002°54'2 3.2
2017-Oct-13 02:51N 47°08' W 002°57'1 2.8
2017-Oct-13 02:30N 47°08' W 002°58'1 2.9
2017-Oct-13 02:00N 47°09' W 002°58'2 3.4
2017-Oct-13 01:30N 47°10' W 002°56'2 3.5
2017-Oct-13 01:00N 47°10' W 002°54'2 3.5
2017-Oct-13 00:30N 47°11' W 002°51'4 7.3
2017-Oct-13 00:00N 47°12' W 002°46'5 9.3
2017-Oct-12 23:30N 47°14' W 002°40'5 9.3
2017-Oct-12 23:00N 47°18' W 002°35'3 6.1
2017-Oct-12 22:30N 47°18' W 002°31'0 0.0
2017-Oct-12 21:56N 47°18' W 002°31'0 0.0
2017-Oct-12 21:30N 47°18' W 002°31'0 0.7
2017-Oct-12 21:00N 47°18' W 002°31'5 8.5
2017-Oct-12 20:28N 47°19' W 002°38'5 9.6
2017-Oct-12 19:57N 47°18' W 002°45'6 9.4
2017-Oct-12 19:21N 47°16' W 002°53'2 3.2
2017-Oct-12 18:46N 47°15' W 002°55'1 3.0
2017-Oct-12 18:30N 47°16' W 002°55'1 2.4
2017-Oct-12 17:59N 47°16' W 002°53'2 3.1
2017-Oct-12 17:16N 47°14' W 002°55'4 2.4
2017-Oct-12 15:31N 47°10' W 002°58'0 4.4
2017-Oct-12 15:25N 47°10' W 002°58'1 2.2
2017-Oct-12 15:00N 47°10' W 002°57'2 0.6
2017-Oct-12 11:35N 47°08' W 002°59'0 2.3
2017-Oct-12 11:30N 47°08' W 002°59'2 3.0
2017-Oct-12 10:59N 47°10' W 002°57'2 3.2
2017-Oct-12 10:20N 47°10' W 002°54'1 3.1
2017-Oct-12 09:52N 47°11' W 002°52'5 1.7
2017-Oct-12 06:58N 47°08' W 002°59'1 2.6
2017-Oct-12 06:30N 47°09' W 002°58'1 3.0
2017-Oct-12 06:00N 47°10' W 002°56'1 2.9
2017-Oct-12 05:29N 47°10' W 002°54'1 2.8
2017-Oct-12 05:00N 47°11' W 002°52'1 2.9
2017-Oct-12 04:29N 47°11' W 002°50'2 2.1
2017-Oct-12 03:44N 47°11' W 002°52'1 3.3
2017-Oct-12 03:17N 47°11' W 002°54'1 3.3
2017-Oct-12 02:56N 47°10' W 002°56'2 3.2
2017-Oct-12 02:27N 47°10' W 002°58'1 2.8
2017-Oct-12 02:00N 47°09' W 002°59'1 2.2
2017-Oct-12 01:30N 47°08' W 002°57'2 3.1
2017-Oct-12 01:00N 47°09' W 002°55'2 3.3
2017-Oct-12 00:30N 47°09' W 002°53'2 3.5
2017-Oct-12 00:00N 47°10' W 002°51'2 3.1
2017-Oct-11 23:29N 47°11' W 002°49'3 2.1
2017-Oct-11 22:17N 47°10' W 002°52'1 2.7
2017-Oct-11 21:53N 47°10' W 002°53'1 2.8
2017-Oct-11 21:26N 47°11' W 002°51'4 1.3
2017-Oct-11 18:23N 47°09' W 002°56'2 2.6
2017-Oct-11 17:46N 47°10' W 002°55'1 2.7
2017-Oct-11 17:27N 47°10' W 002°54'1 2.8
2017-Oct-11 16:59N 47°11' W 002°52'14 0.8
2017-Oct-10 23:00N 46°59' W 002°40'2 2.3
2017-Oct-10 22:16N 46°59' W 002°38'1 3.0
2017-Oct-10 21:56N 46°59' W 002°39'5 2.3
2017-Oct-10 19:47N 47°01' W 002°46'0 0.0
2017-Oct-10 15:09N 47°01' W 002°47'21 1.7
2017-Oct-10 03:03N 46°40' W 002°48'0 3.0
2017-Oct-10 03:00N 46°40' W 002°48'2 2.8
2017-Oct-10 02:26N 46°41' W 002°46'  

Dump ship's entire track history